Time;durP1;ratioP1;P1;durP2;ratioP2;P2;SDS_P1;SDS_P2;PMS_P1;PMS_P2;Temp;Humidity;BMP_temperature;BMP_pressure;BME280_temperature;BME280_humidity;BME280_pressure;Samples;Min_cycle;Max_cycle;Signal;HPM_P1;HPM_P2
2022/08/03 00:01:34;;;;;;;3.22;2.60;;;20.40;99.90;;;;;;5027792;28;20175;-77
2022/08/03 00:04:00;;;;;;;3.95;2.75;;;20.40;99.90;;;;;;5034257;28;20187;-79
2022/08/03 00:06:26;;;;;;;2.72;2.53;;;20.40;99.90;;;;;;5026747;28;20203;-79
2022/08/03 00:08:51;;;;;;;4.88;3.15;;;20.30;99.90;;;;;;5035020;28;20172;-79
2022/08/03 00:11:17;;;;;;;2.92;2.70;;;20.40;99.90;;;;;;5036379;28;20184;-79
2022/08/03 00:13:43;;;;;;;4.10;3.25;;;20.40;99.90;;;;;;5030987;28;20216;-79
2022/08/03 00:16:09;;;;;;;3.22;2.78;;;20.40;99.90;;;;;;5036037;28;20180;-79
2022/08/03 00:18:36;;;;;;;3.08;2.88;;;20.40;99.90;;;;;;5037107;28;20176;-79
2022/08/03 00:21:03;;;;;;;3.35;3.13;;;20.30;99.90;;;;;;5036663;28;20586;-79
2022/08/03 00:23:29;;;;;;;4.20;2.78;;;20.30;99.90;;;;;;5034547;28;20203;-79
2022/08/03 00:25:55;;;;;;;4.72;2.75;;;20.20;99.90;;;;;;5036363;28;20555;-79
2022/08/03 00:28:20;;;;;;;3.13;2.83;;;20.30;99.90;;;;;;5038085;28;20240;-79
2022/08/03 00:30:46;;;;;;;3.30;2.70;;;20.20;99.90;;;;;;5052179;28;20173;-78
2022/08/03 00:33:11;;;;;;;5.22;3.10;;;20.10;99.90;;;;;;5034849;28;20208;-79
2022/08/03 00:35:37;;;;;;;3.33;3.10;;;20.10;99.90;;;;;;5035889;28;20196;-79
2022/08/03 00:38:03;;;;;;;3.13;2.92;;;20.10;99.90;;;;;;5037354;28;20195;-79
2022/08/03 00:40:29;;;;;;;2.97;2.80;;;20.10;99.90;;;;;;5031205;28;20173;-79
2022/08/03 00:42:57;;;;;;;2.90;2.70;;;20.10;99.90;;;;;;5017799;28;20176;-79
2022/08/03 00:45:28;;;;;;;4.00;3.08;;;20.10;99.90;;;;;;5018720;28;20196;-78
2022/08/03 00:47:54;;;;;;;2.83;2.63;;;20.10;99.90;;;;;;5023433;28;20180;-80
2022/08/03 00:50:23;;;;;;;2.90;2.70;;;20.00;99.90;;;;;;5037005;28;20177;-80
2022/08/03 00:52:51;;;;;;;3.30;3.10;;;20.00;99.90;;;;;;5039234;28;20206;-80
2022/08/03 00:55:17;;;;;;;2.60;2.50;;;20.00;99.90;;;;;;5037527;28;20184;-80
2022/08/03 00:57:43;;;;;;;3.17;2.75;;;19.90;99.90;;;;;;5035642;28;20213;-80
2022/08/03 01:00:11;;;;;;;2.88;2.63;;;19.90;99.90;;;;;;5037075;28;20180;-80
2022/08/03 01:02:38;;;;;;;2.78;2.58;;;20.00;99.90;;;;;;5040058;28;20168;-79
2022/08/03 01:05:04;;;;;;;3.72;2.80;;;20.00;99.90;;;;;;5038643;28;20559;-80
2022/08/03 01:07:42;;;;;;;2.80;2.60;;;19.90;99.90;;;;;;5019494;28;20212;-80
2022/08/03 01:10:20;;;;;;;2.85;2.70;;;19.90;99.90;;;;;;5052209;28;20186;-80
2022/08/03 01:12:57;;;;;;;3.17;2.88;;;19.80;99.90;;;;;;5046823;28;20204;-79
2022/08/03 01:15:47;;;;;;;3.13;2.83;;;19.80;99.90;;;;;;5019978;28;20193;-80
2022/08/03 01:18:31;;;;;;;2.83;2.63;;;19.80;99.90;;;;;;5018872;28;20227;-79
2022/08/03 01:21:01;;;;;;;2.78;2.58;;;19.80;99.90;;;;;;5019214;28;20313;-81
2022/08/03 01:23:47;;;;;;;3.00;2.80;;;19.80;99.90;;;;;;5029955;28;20180;-80
2022/08/03 01:26:51;;;;;;;2.78;2.60;;;19.70;99.90;;;;;;5031463;28;20180;-80
2022/08/03 01:29:25;;;;;;;3.22;2.97;;;19.70;99.90;;;;;;5037216;28;20337;-80
2022/08/03 01:32:00;;;;;;;3.00;2.80;;;19.60;99.90;;;;;;5038320;28;20665;-79
2022/08/03 01:34:35;;;;;;;3.55;2.80;;;19.60;99.90;;;;;;5032755;28;20253;-79
2022/08/03 01:37:04;;;;;;;3.38;3.08;;;19.60;99.90;;;;;;5038172;28;20168;-79
2022/08/03 01:39:31;;;;;;;3.13;2.90;;;19.60;99.90;;;;;;5034382;28;20169;-78
2022/08/03 01:42:05;;;;;;;4.22;3.03;;;19.60;99.90;;;;;;5018985;28;20173;-79
2022/08/03 01:44:42;;;;;;;3.33;3.13;;;19.50;99.90;;;;;;5017692;28;20265;-79
2022/08/03 01:47:11;;;;;;;3.40;3.20;;;19.60;99.90;;;;;;5024906;28;20275;-81
2022/08/03 01:49:39;;;;;;;2.63;2.50;;;19.50;99.90;;;;;;5014844;28;20585;-81
2022/08/03 01:52:07;;;;;;;3.15;2.95;;;19.50;99.90;;;;;;5015218;28;20238;-81
2022/08/03 01:54:42;;;;;;;3.58;2.90;;;19.50;99.90;;;;;;5014950;28;20212;-80
2022/08/03 01:57:09;;;;;;;4.55;2.83;;;19.50;99.90;;;;;;5019088;28;20545;-82
2022/08/03 01:59:36;;;;;;;2.83;2.63;;;19.40;99.90;;;;;;5032765;28;20177;-82
2022/08/03 02:02:04;;;;;;;3.50;3.20;;;19.40;99.90;;;;;;5037189;28;20222;-82
2022/08/03 02:04:30;;;;;;;3.17;2.95;;;19.40;99.90;;;;;;5033067;28;20208;-81
2022/08/03 02:10:20;;;;;;;3.67;3.40;;;19.30;99.90;;;;;;5030718;28;20180;-82
2022/08/03 02:12:47;;;;;;;3.88;3.30;;;19.20;99.90;;;;;;5036601;28;20208;-81
2022/08/03 02:15:15;;;;;;;3.30;3.10;;;19.20;99.90;;;;;;5043977;28;20246;-81
2022/08/03 02:17:42;;;;;;;3.08;2.88;;;19.20;99.90;;;;;;5018146;28;20181;-81
2022/08/03 02:20:11;;;;;;;3.58;3.28;;;19.20;99.90;;;;;;5017954;28;20176;-81
2022/08/03 02:22:40;;;;;;;3.08;2.88;;;19.10;99.90;;;;;;5034911;28;20213;-81
2022/08/03 02:25:10;;;;;;;3.50;2.90;;;19.10;99.90;;;;;;5019418;28;20639;-80
2022/08/03 02:27:41;;;;;;;3.13;2.92;;;19.10;99.90;;;;;;5018979;28;20176;-80
2022/08/03 02:30:09;;;;;;;3.33;3.03;;;19.00;99.90;;;;;;5017191;28;20216;-80
2022/08/03 02:32:38;;;;;;;3.65;3.33;;;19.00;99.90;;;;;;5024614;28;20212;-80
2022/08/03 02:35:06;;;;;;;2.92;2.60;;;19.00;99.90;;;;;;5017915;28;20203;-81
2022/08/03 02:37:35;;;;;;;3.00;2.80;;;19.00;99.90;;;;;;5017939;28;20687;-80
2022/08/03 02:40:03;;;;;;;4.88;2.95;;;19.00;99.90;;;;;;5033370;28;20181;-81
2022/08/03 02:42:31;;;;;;;3.00;2.80;;;19.00;99.90;;;;;;5032348;28;20184;-83
2022/08/03 02:45:00;;;;;;;3.00;2.80;;;18.90;99.90;;;;;;5035789;28;20192;-80
2022/08/03 02:47:28;;;;;;;4.55;3.10;;;18.80;99.90;;;;;;5035110;28;20157;-80
2022/08/03 02:49:57;;;;;;;3.22;3.03;;;18.90;99.90;;;;;;5033302;28;20180;-80
2022/08/03 02:52:26;;;;;;;3.00;2.70;;;18.80;99.90;;;;;;5034620;28;20203;-81
2022/08/03 02:54:57;;;;;;;3.63;3.38;;;18.80;99.90;;;;;;5037129;28;20597;-78
2022/08/03 02:57:26;;;;;;;2.65;2.55;;;18.80;99.90;;;;;;5035391;28;20733;-77
2022/08/03 02:59:54;;;;;;;3.30;3.10;;;18.80;99.90;;;;;;5028399;28;20177;-77
2022/08/03 03:02:20;;;;;;;3.03;2.83;;;18.80;99.90;;;;;;5031023;28;20531;-76
2022/08/03 03:04:49;;;;;;;3.78;3.00;;;18.80;99.90;;;;;;5033514;28;20196;-77
2022/08/03 03:07:16;;;;;;;2.95;2.75;;;18.80;99.90;;;;;;5031027;28;20651;-76
2022/08/03 03:09:42;;;;;;;3.22;3.00;;;18.80;99.90;;;;;;5024905;28;20666;-76
2022/08/03 03:12:10;;;;;;;3.55;3.35;;;18.70;99.90;;;;;;5032721;28;20287;-77
2022/08/03 03:14:36;;;;;;;3.10;2.90;;;18.60;99.90;;;;;;5033718;28;20203;-77
2022/08/03 03:17:03;;;;;;;3.45;3.15;;;18.60;99.90;;;;;;5032655;28;20169;-77
2022/08/03 03:19:32;;;;;;;3.17;2.90;;;18.60;99.90;;;;;;5033452;28;20264;-78
2022/08/03 03:22:00;;;;;;;3.20;3.00;;;18.60;99.90;;;;;;5030029;28;20177;-77
2022/08/03 03:24:28;;;;;;;3.08;2.88;;;18.60;99.90;;;;;;5034150;28;20200;-77
2022/08/03 03:26:53;;;;;;;3.10;2.90;;;18.60;99.90;;;;;;5033871;28;20181;-78
2022/08/03 03:29:20;;;;;;;3.08;2.88;;;18.50;99.90;;;;;;5036004;28;20719;-78
2022/08/03 03:31:46;;;;;;;2.85;2.75;;;18.50;99.90;;;;;;5032180;28;20212;-78
2022/08/03 03:34:12;;;;;;;3.67;3.10;;;18.50;99.90;;;;;;5034806;28;20698;-77
2022/08/03 03:36:38;;;;;;;3.70;3.40;;;18.50;99.90;;;;;;5034497;28;20172;-77
2022/08/03 03:39:04;;;;;;;3.67;3.38;;;18.40;99.90;;;;;;5032239;28;20173;-77
2022/08/03 03:41:30;;;;;;;4.55;3.78;;;18.40;99.90;;;;;;5033969;28;20234;-77
2022/08/03 03:43:56;;;;;;;3.22;2.92;;;18.40;99.90;;;;;;5034788;28;20227;-78
2022/08/03 03:46:22;;;;;;;3.30;3.00;;;18.30;99.90;;;;;;5030132;28;20333;-76
2022/08/03 03:48:48;;;;;;;3.15;2.95;;;18.30;99.90;;;;;;5032551;28;20524;-77
2022/08/03 03:51:14;;;;;;;3.25;3.08;;;18.30;99.90;;;;;;5030615;28;20177;-77
2022/08/03 03:53:41;;;;;;;3.10;2.90;;;18.30;99.90;;;;;;5031261;28;20199;-77
2022/08/03 03:56:06;;;;;;;3.17;2.97;;;18.30;99.90;;;;;;5032725;28;20213;-77
2022/08/03 03:58:32;;;;;;;2.95;2.75;;;18.30;99.90;;;;;;5032932;28;20642;-76
2022/08/03 04:00:58;;;;;;;3.25;3.05;;;18.30;99.90;;;;;;5023602;28;20188;-77
2022/08/03 04:03:24;;;;;;;3.10;2.92;;;18.30;99.90;;;;;;5032656;28;20270;-77
2022/08/03 04:11:23;;;;;;;3.13;2.90;;;18.40;99.90;;;;;;5032435;28;20192;-76
2022/08/03 04:13:57;;;;;;;2.85;2.65;;;18.30;99.90;;;;;;5033026;28;20212;-77
2022/08/03 04:16:27;;;;;;;3.20;3.00;;;18.40;99.90;;;;;;5032541;28;20773;-76
2022/08/03 04:19:00;;;;;;;3.28;2.90;;;18.40;99.90;;;;;;5012064;28;20185;-76
2022/08/03 04:21:28;;;;;;;4.93;3.60;;;18.50;99.90;;;;;;5023517;28;20582;-76
2022/08/03 04:23:57;;;;;;;3.30;3.10;;;18.50;99.90;;;;;;5030038;28;20647;-77
2022/08/03 04:26:27;;;;;;;2.72;2.60;;;18.60;99.90;;;;;;5026633;28;20325;-76
2022/08/03 04:28:53;;;;;;;3.60;3.40;;;18.60;99.90;;;;;;5029738;28;20594;-77
2022/08/03 04:31:21;;;;;;;3.20;3.00;;;18.70;99.90;;;;;;5031544;28;20204;-77
2022/08/03 04:33:48;;;;;;;3.85;3.45;;;18.70;99.90;;;;;;5016508;28;20248;-77
2022/08/03 04:36:18;;;;;;;3.40;3.15;;;18.80;99.90;;;;;;5026126;28;20177;-76
2022/08/03 04:39:01;;;;;;;4.22;3.60;;;18.80;99.90;;;;;;5031988;28;20165;-76
2022/08/03 04:41:27;;;;;;;3.60;3.17;;;18.90;99.90;;;;;;5029933;28;20184;-77
2022/08/03 04:43:56;;;;;;;7.28;3.28;;;18.90;99.90;;;;;;5032346;28;20566;-75
2022/08/03 04:46:26;;;;;;;3.40;3.20;;;19.00;99.90;;;;;;5031860;28;20188;-77
2022/08/03 04:48:52;;;;;;;4.00;3.58;;;19.00;99.90;;;;;;5031991;28;20172;-76
2022/08/03 04:51:18;;;;;;;3.92;3.60;;;19.10;99.90;;;;;;5023705;28;20243;-77
2022/08/03 04:53:43;;;;;;;6.00;3.60;;;19.20;99.90;;;;;;5031874;28;20196;-77
2022/08/03 04:56:09;;;;;;;4.05;3.08;;;19.20;99.90;;;;;;5027516;28;20222;-79
2022/08/03 04:58:35;;;;;;;4.20;3.47;;;19.30;99.90;;;;;;5028208;28;20215;-80
2022/08/03 05:01:00;;;;;;;3.75;3.45;;;19.30;99.90;;;;;;5026135;28;20710;-80
2022/08/03 05:03:26;;;;;;;3.35;3.03;;;19.40;99.90;;;;;;5032286;28;20247;-78
2022/08/03 05:05:53;;;;;;;3.95;3.65;;;19.50;99.90;;;;;;5029017;28;20211;-79
2022/08/03 05:08:19;;;;;;;3.40;3.20;;;19.50;99.90;;;;;;5024920;28;20176;-79
2022/08/03 05:10:45;;;;;;;6.00;3.63;;;19.50;99.90;;;;;;5029559;28;20184;-80
2022/08/03 05:13:12;;;;;;;3.90;3.58;;;19.60;99.90;;;;;;5032315;28;20251;-78
2022/08/03 05:15:38;;;;;;;3.40;3.20;;;19.70;99.90;;;;;;5031951;28;20180;-78
2022/08/03 05:18:04;;;;;;;3.92;3.58;;;19.70;99.90;;;;;;5029414;28;20180;-77
2022/08/03 05:20:30;;;;;;;3.78;3.33;;;19.80;99.90;;;;;;5031256;28;20175;-78
2022/08/03 05:22:56;;;;;;;3.10;2.90;;;19.90;99.90;;;;;;5031261;28;20192;-78
2022/08/03 05:25:22;;;;;;;3.85;3.53;;;20.00;99.90;;;;;;5031367;28;20204;-79
2022/08/03 05:27:47;;;;;;;3.90;3.50;;;20.00;99.90;;;;;;5028709;28;20179;-79
2022/08/03 05:30:13;;;;;;;3.45;3.20;;;20.10;99.90;;;;;;5031505;28;20266;-79
2022/08/03 05:32:39;;;;;;;3.47;3.00;;;20.20;99.90;;;;;;5033331;28;20177;-79
2022/08/03 05:35:05;;;;;;;4.35;2.90;;;20.30;99.90;;;;;;5035012;28;20587;-79
2022/08/03 05:37:31;;;;;;;3.72;3.42;;;20.30;99.90;;;;;;5030742;28;20573;-78
2022/08/03 05:39:57;;;;;;;7.85;3.45;;;20.40;99.90;;;;;;5036836;28;20200;-78
2022/08/03 05:42:22;;;;;;;4.75;3.30;;;20.50;99.90;;;;;;5033288;28;20179;-79
2022/08/03 05:44:48;;;;;;;3.70;3.40;;;20.60;99.90;;;;;;5036812;28;20204;-79
2022/08/03 05:47:14;;;;;;;3.42;3.05;;;20.70;99.90;;;;;;5036986;28;20180;-78
2022/08/03 05:49:40;;;;;;;3.00;2.80;;;20.80;99.90;;;;;;5037045;28;20177;-79
2022/08/03 05:52:06;;;;;;;3.00;2.80;;;20.90;99.90;;;;;;5032114;28;20654;-79
2022/08/03 05:54:31;;;;;;;3.67;3.08;;;20.90;99.90;;;;;;5036438;28;20690;-78
2022/08/03 05:56:57;;;;;;;4.47;3.17;;;21.00;99.90;;;;;;5037069;28;20510;-79
2022/08/03 05:59:24;;;;;;;3.67;3.13;;;21.10;99.90;;;;;;5033671;28;20177;-78
2022/08/03 06:01:50;;;;;;;3.63;3.10;;;21.20;99.90;;;;;;5029811;28;20180;-79
2022/08/03 06:04:15;;;;;;;6.30;2.92;;;21.30;99.90;;;;;;5034828;28;20200;-79
2022/08/03 06:06:42;;;;;;;3.00;2.80;;;21.30;99.90;;;;;;5036393;28;20203;-78
2022/08/03 06:09:09;;;;;;;3.45;3.25;;;21.40;99.90;;;;;;5030311;28;20532;-77
2022/08/03 06:11:35;;;;;;;3.58;3.28;;;21.50;99.90;;;;;;5032108;28;20183;-76
2022/08/03 06:14:01;;;;;;;5.25;2.88;;;21.50;99.90;;;;;;5034892;28;20235;-78
2022/08/03 06:16:26;;;;;;;3.92;3.63;;;21.60;99.90;;;;;;5035498;28;20200;-78
2022/08/03 06:18:52;;;;;;;3.47;3.15;;;21.70;99.90;;;;;;5029755;28;20189;-76
2022/08/03 06:21:17;;;;;;;3.15;2.95;;;21.80;99.90;;;;;;5019278;28;20184;-76
2022/08/03 06:23:44;;;;;;;2.67;2.58;;;21.80;99.90;;;;;;5035159;28;20169;-75
2022/08/03 06:26:10;;;;;;;3.10;2.90;;;21.90;99.90;;;;;;5033335;28;20251;-76
2022/08/03 06:28:36;;;;;;;2.78;2.60;;;22.00;99.90;;;;;;5015120;28;20261;-76
2022/08/03 06:31:02;;;;;;;3.15;2.95;;;22.10;99.90;;;;;;5015373;28;20173;-76
2022/08/03 06:33:28;;;;;;;4.00;2.97;;;22.20;99.90;;;;;;5022423;28;20750;-76
2022/08/03 06:35:54;;;;;;;3.33;3.13;;;22.30;99.90;;;;;;5031189;28;20291;-76
2022/08/03 06:38:19;;;;;;;2.90;2.72;;;22.30;99.90;;;;;;5030550;28;20181;-76
2022/08/03 06:40:45;;;;;;;4.03;3.72;;;22.40;99.90;;;;;;5033218;28;20172;-74
2022/08/03 06:43:12;;;;;;;3.53;3.33;;;22.50;99.90;;;;;;5033025;28;20210;-74
2022/08/03 06:45:38;;;;;;;3.13;2.78;;;22.50;99.90;;;;;;5022540;28;20208;-76
2022/08/03 06:48:11;;;;;;;3.38;2.95;;;22.70;99.90;;;;;;5034355;28;20272;-73
2022/08/03 06:50:41;;;;;;;3.08;2.80;;;22.70;99.90;;;;;;5033474;28;20204;-74
2022/08/03 06:53:08;;;;;;;2.58;2.45;;;22.80;99.90;;;;;;5031877;28;20188;-74
2022/08/03 06:55:34;;;;;;;2.70;2.50;;;22.90;99.90;;;;;;5032953;28;20192;-74
2022/08/03 06:57:59;;;;;;;3.03;2.78;;;23.00;99.90;;;;;;5021539;28;20306;-75
2022/08/03 07:00:25;;;;;;;2.90;2.70;;;23.10;99.90;;;;;;5031476;28;20196;-73
2022/08/03 07:02:51;;;;;;;4.15;2.70;;;23.20;99.90;;;;;;5026512;28;20181;-73
2022/08/03 07:05:17;;;;;;;2.95;2.75;;;23.30;99.90;;;;;;5026645;28;20212;-74
2022/08/03 07:07:43;;;;;;;2.10;2.00;;;23.40;99.90;;;;;;5033169;28;20264;-74
2022/08/03 07:10:10;;;;;;;2.22;2.13;;;23.50;99.90;;;;;;5026666;28;20189;-74
2022/08/03 07:12:36;;;;;;;4.07;2.72;;;23.60;99.90;;;;;;5013926;28;20185;-74
2022/08/03 07:15:04;;;;;;;4.43;2.10;;;23.70;99.90;;;;;;5013947;28;20239;-74
2022/08/03 07:17:32;;;;;;;4.13;2.38;;;23.80;99.90;;;;;;5031275;28;20188;-73
2022/08/03 07:19:58;;;;;;;4.05;2.20;;;23.90;99.90;;;;;;5015640;28;20602;-73
2022/08/03 07:22:24;;;;;;;2.65;2.50;;;24.00;99.90;;;;;;5014435;28;20173;-74
2022/08/03 07:24:50;;;;;;;2.70;2.40;;;24.10;99.90;;;;;;5013767;28;20732;-73
2022/08/03 07:27:16;;;;;;;2.50;2.30;;;24.20;99.90;;;;;;5013686;28;20220;-73
2022/08/03 07:29:42;;;;;;;2.42;2.22;;;24.20;99.90;;;;;;5032824;28;20177;-73
2022/08/03 07:32:07;;;;;;;2.50;2.30;;;24.30;99.90;;;;;;5033439;28;20543;-73
2022/08/03 07:34:33;;;;;;;3.75;2.05;;;24.20;99.90;;;;;;5033314;28;20569;-74
2022/08/03 07:36:58;;;;;;;3.17;2.22;;;24.20;99.90;;;;;;5017248;28;20185;-74
2022/08/03 07:39:24;;;;;;;2.50;2.30;;;24.30;99.90;;;;;;5013205;28;20176;-73
2022/08/03 07:41:50;;;;;;;3.45;3.00;;;24.30;99.90;;;;;;5032716;28;20214;-74
2022/08/03 07:44:17;;;;;;;2.75;2.38;;;24.50;99.90;;;;;;5026926;28;20205;-74
2022/08/03 07:46:43;;;;;;;2.53;2.05;;;24.60;99.90;;;;;;5013454;28;20260;-74
2022/08/03 07:49:09;;;;;;;3.70;2.30;;;24.70;99.90;;;;;;5013142;28;20649;-74
2022/08/03 07:51:34;;;;;;;3.53;2.10;;;24.90;99.90;;;;;;5014684;28;20177;-73
2022/08/03 07:54:00;;;;;;;2.47;2.00;;;25.00;99.90;;;;;;5024255;28;20298;-73
2022/08/03 07:56:27;;;;;;;2.13;2.03;;;25.10;99.90;;;;;;5013254;28;20667;-73
2022/08/03 07:58:53;;;;;;;2.20;2.10;;;25.20;99.90;;;;;;5012818;28;20180;-74
2022/08/03 08:01:18;;;;;;;3.92;2.47;;;25.40;99.90;;;;;;5013179;28;20182;-74
2022/08/03 08:03:45;;;;;;;2.95;2.38;;;25.50;99.90;;;;;;5014344;28;20184;-71
2022/08/03 08:06:11;;;;;;;2.30;2.20;;;25.70;99.90;;;;;;5032737;28;20172;-71
2022/08/03 08:08:37;;;;;;;2.40;2.20;;;25.80;99.90;;;;;;5032447;28;20173;-71
2022/08/03 08:11:03;;;;;;;4.03;2.50;;;25.90;99.90;;;;;;5032787;28;20169;-71
2022/08/03 08:13:29;;;;;;;4.40;2.10;;;26.00;99.90;;;;;;5017652;28;20239;-71
2022/08/03 08:15:54;;;;;;;3.33;2.03;;;26.20;99.90;;;;;;5017088;28;20196;-71
2022/08/03 08:18:20;;;;;;;2.33;1.70;;;26.30;99.90;;;;;;5032541;28;20666;-71
2022/08/03 08:20:46;;;;;;;2.20;2.10;;;26.30;99.90;;;;;;5032207;28;20256;-71
2022/08/03 08:23:12;;;;;;;2.10;2.00;;;26.30;99.90;;;;;;5015334;28;20196;-71
2022/08/03 08:25:38;;;;;;;2.30;2.20;;;26.30;99.90;;;;;;5013564;28;20200;-71
2022/08/03 08:28:04;;;;;;;3.78;1.90;;;26.40;99.90;;;;;;5032416;28;20172;-71
2022/08/03 08:30:31;;;;;;;2.00;1.90;;;26.50;99.90;;;;;;5030359;28;20205;-71
2022/08/03 08:32:57;;;;;;;2.50;2.30;;;26.50;99.90;;;;;;5011200;28;20197;-71
2022/08/03 08:35:23;;;;;;;2.20;2.10;;;26.60;99.90;;;;;;5012477;28;20223;-71
2022/08/03 08:37:48;;;;;;;3.70;2.00;;;26.70;99.90;;;;;;5012775;28;20178;-71
2022/08/03 08:40:14;;;;;;;1.98;1.88;;;26.80;99.90;;;;;;5012584;28;20185;-71
2022/08/03 08:42:41;;;;;;;2.53;1.90;;;26.90;99.90;;;;;;5012503;28;20177;-71
2022/08/03 08:45:08;;;;;;;2.70;1.80;;;26.90;99.90;;;;;;5011794;28;20519;-71
2022/08/03 08:47:39;;;;;;;3.20;1.90;;;27.00;99.90;;;;;;5012497;28;20169;-71
2022/08/03 08:50:07;;;;;;;2.25;1.77;;;27.20;99.90;;;;;;5024013;28;20639;-71
2022/08/03 08:52:34;;;;;;;3.10;1.88;;;27.20;99.90;;;;;;5031364;28;20160;-72
2022/08/03 08:55:02;;;;;;;3.13;1.75;;;27.30;99.90;;;;;;5031046;28;20223;-70
2022/08/03 08:57:43;;;;;;;2.08;1.83;;;27.40;99.90;;;;;;5027617;28;20177;-72
2022/08/03 09:00:14;;;;;;;1.70;1.60;;;27.50;99.00;;;;;;5028627;28;20180;-72
2022/08/03 09:02:41;;;;;;;2.03;1.55;;;27.60;99.20;;;;;;5022379;28;20177;-72
2022/08/03 09:05:12;;;;;;;2.67;1.90;;;27.70;97.70;;;;;;5029139;28;20189;-72
2022/08/03 09:07:39;;;;;;;1.63;1.52;;;27.80;97.50;;;;;;5027568;28;20179;-71
2022/08/03 09:10:07;;;;;;;2.65;1.90;;;27.90;96.20;;;;;;5030575;28;20191;-71
2022/08/03 09:12:41;;;;;;;1.60;1.50;;;28.10;96.20;;;;;;5031436;28;20200;-72
2022/08/03 09:15:27;;;;;;;1.88;1.77;;;28.30;96.30;;;;;;5031618;28;20786;-72
2022/08/03 09:17:57;;;;;;;2.70;1.80;;;28.50;96.00;;;;;;5030856;28;20171;-72
2022/08/03 09:20:25;;;;;;;2.95;1.90;;;28.70;95.70;;;;;;5010425;28;20191;-72
2022/08/03 09:22:54;;;;;;;2.70;1.73;;;28.90;94.60;;;;;;5026671;28;20363;-72
2022/08/03 09:25:25;;;;;;;1.70;1.55;;;29.10;92.80;;;;;;5031541;28;20206;-73
2022/08/03 09:27:51;;;;;;;3.17;1.60;;;29.50;92.30;;;;;;5013772;28;20263;-73
2022/08/03 09:30:18;;;;;;;3.50;1.80;;;29.80;90.70;;;;;;5011614;28;20256;-73
2022/08/03 09:32:45;;;;;;;1.98;1.65;;;31.00;87.10;;;;;;5012056;28;20169;-73
2022/08/03 09:35:12;;;;;;;1.60;1.50;;;33.30;80.50;;;;;;5027202;28;20286;-73
2022/08/03 09:37:38;;;;;;;1.85;1.75;;;35.70;69.00;;;;;;5029740;28;20172;-74
2022/08/03 09:40:04;;;;;;;1.20;1.20;;;37.50;61.40;;;;;;5027862;28;20544;-74
2022/08/03 09:42:30;;;;;;;1.48;1.20;;;38.70;54.90;;;;;;5030475;28;20176;-73
2022/08/03 09:44:56;;;;;;;2.78;1.50;;;40.10;52.10;;;;;;5031389;28;20278;-74
2022/08/03 09:47:35;;;;;;;1.67;1.30;;;41.50;49.70;;;;;;5023375;28;20230;-74
2022/08/03 09:50:07;;;;;;;1.70;1.20;;;42.30;46.90;;;;;;5031088;28;20175;-73
2022/08/03 09:52:38;;;;;;;4.38;1.40;;;42.50;46.60;;;;;;5024794;28;20208;-75
2022/08/03 09:55:09;;;;;;;1.40;1.30;;;43.40;45.10;;;;;;5029375;28;20214;-74
2022/08/03 09:57:35;;;;;;;1.10;1.10;;;43.70;43.90;;;;;;5029799;28;20176;-73
2022/08/03 10:00:10;;;;;;;2.58;1.42;;;44.10;43.20;;;;;;5031478;28;20164;-76
2022/08/03 10:02:36;;;;;;;1.73;1.33;;;44.30;41.50;;;;;;5030122;28;20229;-73
2022/08/03 10:05:03;;;;;;;1.23;1.23;;;44.60;41.60;;;;;;5028921;28;20282;-73
2022/08/03 10:07:29;;;;;;;0.90;0.90;;;45.10;41.10;;;;;;5031206;28;20491;-74
2022/08/03 10:09:59;;;;;;;1.25;1.00;;;45.60;38.20;;;;;;5030511;28;20267;-73
2022/08/03 10:12:26;;;;;;;1.05;1.05;;;45.60;38.90;;;;;;5030934;28;20275;-73
2022/08/03 10:14:53;;;;;;;1.33;1.30;;;45.40;38.90;;;;;;5030749;28;20586;-73
2022/08/03 10:17:19;;;;;;;1.92;1.00;;;45.60;38.40;;;;;;5033674;28;20168;-74
2022/08/03 10:19:46;;;;;;;1.52;0.90;;;45.70;37.80;;;;;;5030123;28;20191;-75
2022/08/03 10:22:23;;;;;;;2.03;1.00;;;46.20;36.30;;;;;;5029389;28;20619;-73
2022/08/03 10:24:54;;;;;;;1.63;1.10;;;46.50;35.10;;;;;;5034264;28;20759;-73
2022/08/03 10:27:22;;;;;;;1.15;1.15;;;46.80;34.50;;;;;;5031505;28;20187;-73
2022/08/03 10:29:54;;;;;;;1.23;1.23;;;46.50;35.80;;;;;;5033549;28;20173;-73
2022/08/03 10:32:43;;;;;;;1.15;1.10;;;46.80;36.10;;;;;;5032388;28;20219;-73
2022/08/03 10:35:20;;;;;;;3.15;1.17;;;46.30;36.20;;;;;;5031570;28;20318;-74
2022/08/03 10:38:01;;;;;;;1.10;1.10;;;46.10;36.80;;;;;;5033685;28;20202;-73
2022/08/03 10:40:29;;;;;;;5.88;1.42;;;46.50;36.20;;;;;;5031586;28;20180;-73
2022/08/03 10:43:00;;;;;;;1.85;1.42;;;46.80;35.50;;;;;;5029740;28;20258;-73
2022/08/03 10:45:27;;;;;;;1.38;1.30;;;47.00;35.90;;;;;;5029673;28;20683;-73
2022/08/03 10:47:56;;;;;;;1.08;1.08;;;46.90;35.60;;;;;;5030348;28;20204;-73
2022/08/03 10:50:23;;;;;;;1.15;1.10;;;47.10;35.90;;;;;;5032118;28;20172;-73
2022/08/03 10:52:56;;;;;;;1.35;1.30;;;47.40;35.20;;;;;;5031244;28;20263;-73
2022/08/03 10:58:48;;;;;;;1.10;1.10;;;49.20;33.10;;;;;;5028419;28;20187;-73
2022/08/03 11:01:14;;;;;;;1.05;0.95;;;48.90;34.10;;;;;;5025679;28;20781;-74
2022/08/03 11:04:00;;;;;;;1.10;1.10;;;49.00;34.00;;;;;;5033314;28;20183;-74
2022/08/03 11:06:26;;;;;;;1.05;0.95;;;48.70;33.80;;;;;;5027800;28;20183;-74
2022/08/03 11:09:10;;;;;;;3.78;1.35;;;48.10;34.60;;;;;;5033200;28;20172;-74
2022/08/03 11:11:37;;;;;;;1.95;1.05;;;48.20;34.00;;;;;;5023038;28;20176;-74
2022/08/03 11:14:08;;;;;;;2.85;1.33;;;48.30;34.00;;;;;;5030733;28;20212;-75
2022/08/03 11:16:37;;;;;;;1.58;1.10;;;48.70;33.80;;;;;;5030953;28;20183;-74
2022/08/03 11:19:04;;;;;;;4.15;1.15;;;49.20;33.40;;;;;;5030275;28;20271;-74
2022/08/03 11:21:48;;;;;;;2.17;1.30;;;48.70;33.40;;;;;;5033799;28;20180;-74
2022/08/03 11:24:36;;;;;;;2.35;1.00;;;48.80;32.50;;;;;;5027409;28;20756;-73
2022/08/03 11:27:21;;;;;;;0.75;0.75;;;48.50;32.80;;;;;;5029183;28;20721;-73
2022/08/03 11:30:06;;;;;;;1.15;1.15;;;48.70;32.90;;;;;;5027872;28;20187;-73
2022/08/03 11:32:45;;;;;;;1.65;1.05;;;48.70;33.10;;;;;;5027279;28;20184;-73
2022/08/03 11:35:18;;;;;;;1.08;1.02;;;48.00;33.60;;;;;;5023797;28;20261;-73
2022/08/03 11:37:59;;;;;;;1.20;0.98;;;48.10;32.90;;;;;;5030540;28;20229;-73
2022/08/03 11:40:48;;;;;;;1.00;0.95;;;47.70;33.00;;;;;;5028012;28;20233;-73
2022/08/03 11:43:29;;;;;;;1.13;1.13;;;48.00;33.40;;;;;;5025549;28;20208;-73
2022/08/03 11:46:11;;;;;;;1.35;0.98;;;48.00;33.40;;;;;;5014983;28;20271;-73
2022/08/03 11:48:44;;;;;;;1.20;0.85;;;48.90;32.30;;;;;;5014042;28;20315;-72
2022/08/03 11:51:32;;;;;;;0.98;0.98;;;48.70;32.60;;;;;;5014069;28;20188;-73
2022/08/03 11:54:03;;;;;;;1.48;1.17;;;48.30;32.10;;;;;;5030203;28;20232;-72
2022/08/03 11:56:47;;;;;;;1.13;0.90;;;48.10;32.20;;;;;;5030431;28;20578;-73
2022/08/03 11:59:13;;;;;;;1.58;1.02;;;47.80;32.70;;;;;;5030606;28;20202;-73
2022/08/03 12:01:39;;;;;;;0.80;0.80;;;48.10;32.20;;;;;;5024119;28;20267;-73
2022/08/03 12:04:05;;;;;;;1.30;1.20;;;48.20;32.60;;;;;;5033147;28;20603;-72
2022/08/03 12:06:53;;;;;;;1.65;1.00;;;48.10;32.40;;;;;;5032898;28;20246;-72
2022/08/03 12:09:17;;;;;;;1.35;1.05;;;48.00;32.40;;;;;;5025859;28;20184;-72
2022/08/03 12:11:46;;;;;;;0.93;0.93;;;47.70;32.20;;;;;;5032122;28;20191;-73
2022/08/03 12:14:15;;;;;;;1.48;0.95;;;47.40;33.00;;;;;;5032470;28;20232;-72
2022/08/03 12:16:46;;;;;;;1.10;1.10;;;47.10;32.70;;;;;;5030292;28;20184;-72
2022/08/03 12:19:12;;;;;;;1.00;1.00;;;47.10;32.00;;;;;;5012787;28;20173;-74
2022/08/03 12:21:47;;;;;;;1.88;1.13;;;46.80;33.10;;;;;;5012959;28;20252;-73
2022/08/03 12:24:13;;;;;;;1.45;1.10;;;46.90;32.50;;;;;;5012826;28;20678;-75
2022/08/03 12:26:45;;;;;;;0.80;0.80;;;46.80;32.50;;;;;;5023784;28;20199;-74
2022/08/03 12:29:19;;;;;;;0.85;0.85;;;46.50;32.30;;;;;;5031107;28;20198;-74
2022/08/03 12:31:45;;;;;;;2.22;1.20;;;46.60;32.20;;;;;;5032093;28;20650;-73
2022/08/03 12:34:11;;;;;;;0.90;0.90;;;46.50;32.40;;;;;;5024820;28;20220;-73
2022/08/03 12:36:37;;;;;;;0.88;0.82;;;46.60;32.70;;;;;;5012796;28;20644;-74
2022/08/03 12:39:08;;;;;;;0.90;0.90;;;46.50;32.00;;;;;;5015323;28;20199;-73
2022/08/03 12:41:37;;;;;;;3.78;1.35;;;45.80;33.00;;;;;;5031462;28;20180;-75
2022/08/03 12:44:04;;;;;;;1.08;0.98;;;45.80;33.70;;;;;;5027830;28;20191;-74
2022/08/03 12:46:40;;;;;;;1.00;1.00;;;46.00;32.00;;;;;;5028068;28;20175;-74
2022/08/03 12:49:09;;;;;;;1.63;1.00;;;46.50;32.00;;;;;;5030393;28;20184;-74
2022/08/03 12:51:59;;;;;;;1.10;1.10;;;46.80;31.30;;;;;;5029482;28;20656;-74
2022/08/03 12:54:30;;;;;;;1.25;0.80;;;46.20;31.10;;;;;;5030507;28;20593;-74
2022/08/03 12:57:14;;;;;;;0.90;0.80;;;45.80;31.30;;;;;;5027989;28;20589;-74
2022/08/03 12:59:42;;;;;;;1.00;0.80;;;46.50;30.20;;;;;;5012001;28;20180;-74
2022/08/03 13:02:24;;;;;;;1.27;0.82;;;47.30;29.90;;;;;;5020965;28;20251;-74
2022/08/03 13:04:52;;;;;;;0.82;0.75;;;49.10;29.30;;;;;;5031210;28;20208;-74
2022/08/03 13:07:19;;;;;;;1.27;0.68;;;51.30;28.40;;;;;;5031764;28;20188;-73
2022/08/03 13:09:45;;;;;;;1.00;0.75;;;53.10;27.90;;;;;;5028418;28;20527;-73